Time;durP1;ratioP1;P1;durP2;ratioP2;P2;SDS_P1;SDS_P2;PMS_P1;PMS_P2;Temp;Humidity;BMP_temperature;BMP_pressure;BME280_temperature;BME280_humidity;BME280_pressure;Samples;Min_cycle;Max_cycle;Signal;HPM_P1;HPM_P2
2024/03/18 00:01:42;;;;;;;1.08;0.82;;;21.10;75.70;;;;;;5059049;28;21134;-38
2024/03/18 00:04:23;;;;;;;1.10;0.80;;;21.10;75.80;;;;;;5064407;28;20435;-37
2024/03/18 00:07:00;;;;;;;1.15;1.05;;;21.10;75.80;;;;;;5058945;28;20197;-37
2024/03/18 00:09:33;;;;;;;1.13;1.00;;;21.10;76.00;;;;;;5054776;28;20201;-44
2024/03/18 00:12:11;;;;;;;0.98;0.80;;;21.10;76.00;;;;;;5062308;28;20222;-37
2024/03/18 00:15:03;;;;;;;1.00;0.90;;;21.10;76.00;;;;;;5053651;28;20201;-45
2024/03/18 00:17:58;;;;;;;1.00;0.80;;;21.10;76.10;;;;;;5052150;28;20209;-37
2024/03/18 00:20:31;;;;;;;1.00;0.82;;;21.00;76.10;;;;;;5067005;28;20240;-40
2024/03/18 00:23:12;;;;;;;1.10;0.90;;;21.00;76.20;;;;;;5065275;28;20225;-42
2024/03/18 00:25:50;;;;;;;1.10;0.90;;;21.00;76.20;;;;;;5060586;28;20194;-42
2024/03/18 00:28:22;;;;;;;1.10;0.90;;;21.00;76.40;;;;;;5064820;28;20200;-41
2024/03/18 00:31:05;;;;;;;1.10;0.90;;;20.90;76.40;;;;;;5063235;28;20673;-42
2024/03/18 00:33:45;;;;;;;1.20;1.00;;;20.90;76.40;;;;;;5053847;28;20197;-40
2024/03/18 00:36:12;;;;;;;1.00;0.80;;;20.90;76.50;;;;;;5060753;28;20284;-37
2024/03/18 00:39:08;;;;;;;0.98;0.80;;;20.90;76.60;;;;;;5051381;28;20636;-44
2024/03/18 00:41:46;;;;;;;1.30;0.85;;;20.90;76.70;;;;;;5054921;28;20232;-45
2024/03/18 00:47:09;;;;;;;1.10;0.93;;;20.80;76.80;;;;;;5061165;28;20205;-35
2024/03/18 00:49:43;;;;;;;1.08;0.95;;;20.80;77.00;;;;;;5065385;28;20283;-36
2024/03/18 00:52:15;;;;;;;1.30;0.82;;;20.80;77.10;;;;;;5058072;28;20213;-40
2024/03/18 00:54:43;;;;;;;2.22;0.80;;;20.80;77.20;;;;;;5063194;28;20197;-43
2024/03/18 00:57:14;;;;;;;0.98;0.77;;;20.70;77.10;;;;;;5067461;28;20202;-40
2024/03/18 00:59:49;;;;;;;1.00;0.80;;;20.70;77.30;;;;;;5064555;28;21126;-34
2024/03/18 01:02:17;;;;;;;1.00;0.90;;;20.70;77.40;;;;;;5061946;28;20546;-40
2024/03/18 01:04:48;;;;;;;1.25;0.90;;;20.70;77.50;;;;;;5066686;28;20202;-40
2024/03/18 01:07:17;;;;;;;1.10;0.90;;;20.60;77.50;;;;;;5059734;28;20193;-41
2024/03/18 01:09:48;;;;;;;1.30;1.00;;;20.60;77.60;;;;;;5062821;28;20213;-38
2024/03/18 01:12:29;;;;;;;1.27;0.90;;;20.60;77.60;;;;;;5037593;28;20201;-39
2024/03/18 01:15:07;;;;;;;1.00;0.80;;;20.60;77.80;;;;;;5066912;28;20704;-40
2024/03/18 01:17:34;;;;;;;1.10;0.80;;;20.60;77.80;;;;;;5065576;28;20250;-39
2024/03/18 01:20:14;;;;;;;1.00;0.77;;;20.60;77.90;;;;;;5066594;28;20684;-37
2024/03/18 01:22:47;;;;;;;1.95;0.70;;;20.60;78.00;;;;;;5061740;28;20217;-35
2024/03/18 01:25:15;;;;;;;1.00;0.70;;;20.50;78.00;;;;;;5067215;28;20202;-42
2024/03/18 01:27:57;;;;;;;1.10;0.90;;;20.50;78.10;;;;;;5056032;28;20650;-41
2024/03/18 01:30:27;;;;;;;1.17;0.90;;;20.50;78.20;;;;;;5053192;28;20221;-38
2024/03/18 01:33:02;;;;;;;1.00;0.75;;;20.50;78.30;;;;;;5065290;28;20551;-37
2024/03/18 01:35:34;;;;;;;0.95;0.85;;;20.50;78.40;;;;;;5064728;28;20327;-43
2024/03/18 01:38:03;;;;;;;1.23;0.80;;;20.40;78.40;;;;;;5063422;28;20202;-37
2024/03/18 01:40:32;;;;;;;1.55;0.95;;;20.40;78.50;;;;;;5058163;28;20706;-38
2024/03/18 01:43:08;;;;;;;1.30;0.90;;;20.40;78.60;;;;;;5057722;28;20230;-37
2024/03/18 01:45:46;;;;;;;1.00;0.80;;;20.40;78.70;;;;;;5064471;28;20213;-38
2024/03/18 01:48:16;;;;;;;1.00;0.88;;;20.40;78.70;;;;;;5060765;28;20202;-43
2024/03/18 01:50:47;;;;;;;1.15;0.95;;;20.40;78.90;;;;;;5050889;28;20237;-41
2024/03/18 01:53:20;;;;;;;1.10;0.80;;;20.30;78.90;;;;;;5052586;28;20193;-39
2024/03/18 01:55:48;;;;;;;1.10;0.90;;;20.30;78.90;;;;;;5051229;28;20722;-43
2024/03/18 01:58:22;;;;;;;1.10;1.00;;;20.30;79.00;;;;;;5057855;28;20633;-39
2024/03/18 02:03:54;;;;;;;1.20;0.80;;;20.30;79.20;;;;;;5064663;28;20566;-36
2024/03/18 02:06:32;;;;;;;1.27;0.98;;;20.20;79.20;;;;;;5063966;28;20206;-44
2024/03/18 02:09:02;;;;;;;1.00;0.90;;;20.20;79.30;;;;;;5058688;28;20805;-38
2024/03/18 02:11:40;;;;;;;1.10;0.90;;;20.20;79.30;;;;;;5070204;28;20289;-40
2024/03/18 02:14:14;;;;;;;1.10;0.95;;;20.20;79.50;;;;;;5066596;28;21021;-36
2024/03/18 02:16:56;;;;;;;1.00;0.80;;;20.10;79.40;;;;;;5058611;28;20250;-36
2024/03/18 02:19:27;;;;;;;1.10;0.85;;;20.10;79.50;;;;;;5062218;28;20573;-41
2024/03/18 02:22:00;;;;;;;1.10;0.80;;;20.10;79.60;;;;;;5056450;28;20569;-38
2024/03/18 02:24:39;;;;;;;1.00;0.82;;;20.10;79.60;;;;;;5062556;28;20208;-37
2024/03/18 02:27:13;;;;;;;1.20;0.80;;;20.10;79.70;;;;;;5046330;28;20198;-39
2024/03/18 02:29:48;;;;;;;1.20;0.80;;;20.10;79.80;;;;;;5054386;28;20201;-44
2024/03/18 02:32:20;;;;;;;1.10;0.80;;;20.10;79.90;;;;;;5057786;28;20198;-48
2024/03/18 02:34:55;;;;;;;1.10;0.90;;;20.10;80.00;;;;;;5054355;28;20197;-38
2024/03/18 02:37:34;;;;;;;1.00;0.75;;;20.00;80.00;;;;;;5053612;28;20297;-38
2024/03/18 02:40:19;;;;;;;1.00;0.80;;;20.00;80.00;;;;;;5052331;28;20232;-44
2024/03/18 02:42:53;;;;;;;1.08;0.90;;;20.00;80.90;;;;;;5062285;28;20578;-41
2024/03/18 02:45:25;;;;;;;1.00;0.80;;;20.00;81.10;;;;;;5034477;28;20205;-40
2024/03/18 02:47:53;;;;;;;1.10;0.90;;;20.00;80.30;;;;;;5045256;28;20197;-40
2024/03/18 02:50:30;;;;;;;1.10;0.90;;;20.00;80.40;;;;;;5050315;28;20198;-39
2024/03/18 02:53:02;;;;;;;1.15;0.80;;;19.90;81.00;;;;;;5055697;28;20314;-36
2024/03/18 02:55:34;;;;;;;0.90;0.70;;;19.90;80.40;;;;;;5061230;28;20206;-44
2024/03/18 02:58:10;;;;;;;1.10;0.90;;;19.90;80.40;;;;;;5058787;28;20201;-41
2024/03/18 03:00:46;;;;;;;1.10;0.85;;;19.90;80.50;;;;;;5053444;28;20355;-37
2024/03/18 03:03:15;;;;;;;1.20;1.00;;;19.90;80.60;;;;;;5063340;28;20228;-39
2024/03/18 03:05:51;;;;;;;1.00;0.80;;;19.90;80.60;;;;;;5058172;28;20790;-33
2024/03/18 03:08:25;;;;;;;1.00;0.90;;;19.90;80.70;;;;;;5058925;28;20276;-37
2024/03/18 03:10:55;;;;;;;1.20;0.80;;;19.90;80.70;;;;;;5057617;28;22586;-41
2024/03/18 03:13:33;;;;;;;1.10;0.80;;;19.90;80.70;;;;;;5061306;28;20190;-40
2024/03/18 03:16:02;;;;;;;1.30;0.90;;;19.80;80.70;;;;;;5063813;28;20193;-38
2024/03/18 03:18:32;;;;;;;1.27;0.88;;;19.80;80.90;;;;;;5066622;28;20201;-40
2024/03/18 03:21:01;;;;;;;0.98;0.73;;;19.80;81.00;;;;;;5063480;28;20573;-40
2024/03/18 03:23:30;;;;;;;1.00;0.90;;;19.80;81.00;;;;;;5065803;28;20205;-42
2024/03/18 03:26:06;;;;;;;1.00;0.80;;;19.80;81.00;;;;;;5062047;28;20325;-44
2024/03/18 03:28:40;;;;;;;1.00;0.85;;;19.80;81.10;;;;;;5053559;28;20221;-49
2024/03/18 03:31:14;;;;;;;1.00;0.88;;;19.70;81.00;;;;;;5057522;28;20201;-39
2024/03/18 03:33:49;;;;;;;1.20;1.05;;;19.70;81.20;;;;;;5067756;28;20193;-39
2024/03/18 03:36:23;;;;;;;1.20;0.93;;;19.70;81.30;;;;;;5066494;28;20342;-37
2024/03/18 03:38:55;;;;;;;1.02;0.80;;;19.70;81.30;;;;;;5064418;28;21717;-37
2024/03/18 03:41:27;;;;;;;1.08;0.90;;;19.70;81.30;;;;;;5063296;28;20236;-36
2024/03/18 03:43:59;;;;;;;1.20;0.95;;;19.70;81.40;;;;;;5064138;28;22355;-37
2024/03/18 03:46:30;;;;;;;1.10;0.88;;;19.70;81.50;;;;;;5048573;28;20194;-38
2024/03/18 03:48:58;;;;;;;1.00;0.80;;;19.60;81.50;;;;;;5061080;28;20221;-41
2024/03/18 03:51:28;;;;;;;1.00;0.80;;;19.60;81.50;;;;;;5059318;28;20768;-43
2024/03/18 03:54:13;;;;;;;;;;;;;;;;;;;;;
2024/03/18 03:56:47;;;;;;;1.00;0.88;;;19.60;81.70;;;;;;5057974;28;20209;-46
2024/03/18 03:59:20;;;;;;;1.05;0.77;;;19.60;81.70;;;;;;5058967;28;20217;-44
2024/03/18 04:01:56;;;;;;;1.10;0.90;;;19.60;81.80;;;;;;5059244;28;20229;-40
2024/03/18 04:04:32;;;;;;;1.20;1.00;;;19.60;82.60;;;;;;5049355;28;20343;-41
2024/03/18 04:07:02;;;;;;;0.98;0.70;;;19.50;81.80;;;;;;5047886;28;20197;-43
2024/03/18 04:09:32;;;;;;;1.10;0.95;;;19.50;81.90;;;;;;5062025;28;20206;-44
2024/03/18 04:12:07;;;;;;;1.00;0.88;;;19.50;81.90;;;;;;5054940;28;20205;-42
2024/03/18 04:14:45;;;;;;;1.35;0.85;;;19.50;82.00;;;;;;5057203;28;20197;-36
2024/03/18 04:17:20;;;;;;;1.15;0.82;;;19.50;82.00;;;;;;5059352;28;20607;-39
2024/03/18 04:20:15;;;;;;;0.93;0.80;;;19.50;82.10;;;;;;5058309;28;20630;-36
2024/03/18 04:22:48;;;;;;;1.10;1.00;;;19.50;82.20;;;;;;5057627;28;20201;-39
2024/03/18 04:25:23;;;;;;;1.10;0.80;;;19.50;82.30;;;;;;5045301;28;20201;-38
2024/03/18 04:27:59;;;;;;;1.00;0.80;;;19.40;82.20;;;;;;5044089;28;20204;-40
2024/03/18 04:30:30;;;;;;;1.00;0.90;;;19.50;82.40;;;;;;5056986;28;20201;-46
2024/03/18 04:33:01;;;;;;;1.00;0.82;;;19.40;82.30;;;;;;5062005;28;20202;-43
2024/03/18 04:35:32;;;;;;;1.20;0.90;;;19.40;82.40;;;;;;5060816;28;20194;-42
2024/03/18 04:38:14;;;;;;;0.98;0.77;;;19.40;82.50;;;;;;5057095;28;20208;-41
2024/03/18 04:40:46;;;;;;;1.20;0.90;;;19.40;82.50;;;;;;5061825;28;21121;-39
2024/03/18 04:43:23;;;;;;;1.00;0.80;;;19.40;82.50;;;;;;5056836;28;20198;-39
2024/03/18 04:45:51;;;;;;;1.10;0.80;;;19.40;82.50;;;;;;5063996;28;20193;-35
2024/03/18 04:48:19;;;;;;;0.90;0.80;;;19.40;82.60;;;;;;5063656;28;20202;-41
2024/03/18 04:51:01;;;;;;;1.02;0.90;;;19.40;82.70;;;;;;5065893;28;20197;-37
2024/03/18 04:53:37;;;;;;;1.30;1.00;;;19.40;82.80;;;;;;5055283;28;20212;-37
2024/03/18 04:56:12;;;;;;;1.00;0.80;;;19.30;82.70;;;;;;5057035;28;20193;-39
2024/03/18 04:58:40;;;;;;;1.00;0.80;;;19.30;82.70;;;;;;5058027;28;20205;-36
2024/03/18 05:01:18;;;;;;;0.90;0.70;;;19.30;82.80;;;;;;5049985;28;20222;-40
2024/03/18 05:03:49;;;;;;;0.98;0.80;;;19.30;82.90;;;;;;5061682;28;20406;-33
2024/03/18 05:06:20;;;;;;;1.00;0.90;;;19.30;82.90;;;;;;5060555;28;20198;-41
2024/03/18 05:08:59;;;;;;;1.20;0.90;;;19.30;83.00;;;;;;5059625;28;20193;-41
2024/03/18 05:11:26;;;;;;;0.90;0.70;;;19.30;83.00;;;;;;5062978;28;20201;-44
2024/03/18 05:13:59;;;;;;;1.10;0.75;;;19.30;83.00;;;;;;5066567;28;20205;-42
2024/03/18 05:16:37;;;;;;;1.00;0.90;;;19.30;83.10;;;;;;5064763;28;20364;-46
2024/03/18 05:19:04;;;;;;;1.23;0.93;;;19.20;83.00;;;;;;5068692;28;20221;-39
2024/03/18 05:21:36;;;;;;;1.00;0.73;;;19.20;83.00;;;;;;5062004;28;20909;-35
2024/03/18 05:24:17;;;;;;;1.10;0.90;;;19.20;83.10;;;;;;5062011;28;20205;-41
2024/03/18 05:26:47;;;;;;;1.00;0.90;;;19.20;83.10;;;;;;5056387;28;20602;-42
2024/03/18 05:29:26;;;;;;;1.20;0.90;;;19.20;82.90;;;;;;5050025;28;20200;-39
2024/03/18 05:31:57;;;;;;;1.10;0.90;;;19.20;83.30;;;;;;5050216;28;20197;-40
2024/03/18 05:34:33;;;;;;;1.23;0.90;;;19.20;83.30;;;;;;5059645;28;20195;-42
2024/03/18 05:37:01;;;;;;;1.20;0.80;;;19.20;83.40;;;;;;5058286;28;20272;-38
2024/03/18 05:39:31;;;;;;;1.00;0.82;;;19.20;83.50;;;;;;5064954;28;20200;-38
2024/03/18 05:42:01;;;;;;;1.10;0.90;;;19.20;83.60;;;;;;5064716;28;21179;-34
2024/03/18 05:44:45;;;;;;;1.05;0.88;;;19.20;83.60;;;;;;5065256;28;20194;-41
2024/03/18 05:47:11;;;;;;;1.10;1.00;;;19.20;83.50;;;;;;5054202;28;20194;-35
2024/03/18 05:49:44;;;;;;;1.00;0.90;;;19.20;83.50;;;;;;5060670;28;20672;-38
2024/03/18 05:52:13;;;;;;;1.00;0.80;;;19.20;83.50;;;;;;5054838;28;20228;-41
2024/03/18 05:54:47;;;;;;;1.00;0.80;;;19.20;83.60;;;;;;5058156;28;20193;-39
2024/03/18 05:57:20;;;;;;;1.00;0.80;;;19.20;83.60;;;;;;5060634;28;20219;-39
2024/03/18 05:59:48;;;;;;;1.00;0.80;;;19.20;83.60;;;;;;5060989;28;20352;-33
2024/03/18 06:02:27;;;;;;;1.10;0.90;;;19.20;83.70;;;;;;5063445;28;20198;-35
2024/03/18 06:04:58;;;;;;;1.00;0.80;;;19.10;83.60;;;;;;5056080;28;21482;-38
2024/03/18 06:07:34;;;;;;;1.20;1.00;;;19.10;83.60;;;;;;5053270;28;20495;-40
2024/03/18 06:10:03;;;;;;;1.77;1.00;;;19.10;83.70;;;;;;5064963;28;20525;-42
2024/03/18 06:12:35;;;;;;;1.20;0.93;;;19.10;83.80;;;;;;5061521;28;20890;-38
2024/03/18 06:15:09;;;;;;;1.08;0.85;;;19.10;83.70;;;;;;5061905;28;20220;-44
2024/03/18 06:17:39;;;;;;;1.13;0.80;;;19.10;83.80;;;;;;5063879;28;20189;-38
2024/03/18 06:20:11;;;;;;;1.10;1.00;;;19.10;83.90;;;;;;5060271;28;20214;-38
2024/03/18 06:22:47;;;;;;;1.00;0.90;;;19.10;83.90;;;;;;5059298;28;20687;-39
2024/03/18 06:28:17;;;;;;;;;;;;;;;;;;;;;
2024/03/18 06:30:57;;;;;;;1.10;1.00;;;19.10;84.00;;;;;;5060015;28;20209;-39
2024/03/18 06:33:25;;;;;;;5.03;1.00;;;19.10;84.20;;;;;;5054378;28;20201;-37
2024/03/18 06:38:46;;;;;;;1.08;0.80;;;19.10;84.30;;;;;;5060326;28;20202;-42
2024/03/18 06:41:24;;;;;;;1.00;0.80;;;19.00;84.30;;;;;;5063753;28;20221;-40
2024/03/18 06:43:53;;;;;;;1.90;1.10;;;19.00;84.20;;;;;;5051261;28;20202;-45
2024/03/18 06:46:25;;;;;;;1.10;0.90;;;19.00;84.40;;;;;;5054109;28;20502;-41
2024/03/18 06:48:58;;;;;;;2.38;0.93;;;19.00;84.40;;;;;;5065412;28;20186;-42
2024/03/18 06:51:31;;;;;;;2.50;1.00;;;19.00;84.50;;;;;;5057967;28;20496;-39
2024/03/18 06:54:01;;;;;;;1.00;0.77;;;19.00;84.40;;;;;;5047446;28;20670;-44
2024/03/18 06:56:43;;;;;;;1.10;0.95;;;19.00;84.70;;;;;;5063012;28;21270;-40
2024/03/18 06:59:18;;;;;;;1.90;0.80;;;19.00;84.50;;;;;;5061313;28;20189;-47
2024/03/18 07:02:00;;;;;;;0.90;0.75;;;19.00;84.50;;;;;;5058899;28;20217;-41
2024/03/18 07:04:28;;;;;;;1.00;0.82;;;19.00;84.60;;;;;;5055332;28;20632;-47
2024/03/18 07:07:04;;;;;;;1.20;1.10;;;19.00;84.60;;;;;;5052111;28;20543;-43
2024/03/18 07:09:38;;;;;;;1.00;0.85;;;19.00;84.60;;;;;;5060330;28;20224;-46
2024/03/18 07:12:12;;;;;;;1.00;0.70;;;19.00;84.60;;;;;;5063993;28;20205;-41
2024/03/18 07:14:47;;;;;;;1.05;0.90;;;19.00;84.60;;;;;;5061964;28;20190;-48
2024/03/18 07:17:25;;;;;;;1.00;0.90;;;19.00;84.60;;;;;;5058994;28;20377;-46
2024/03/18 07:20:00;;;;;;;1.77;0.80;;;19.00;84.60;;;;;;5060450;28;20673;-44
2024/03/18 07:22:33;;;;;;;1.00;0.80;;;19.00;84.60;;;;;;5064574;28;20309;-44
2024/03/18 07:25:03;;;;;;;1.00;0.88;;;19.00;84.70;;;;;;5054359;28;20195;-48
2024/03/18 07:27:36;;;;;;;1.10;0.90;;;18.90;84.40;;;;;;5051760;28;20680;-44
2024/03/18 07:30:06;;;;;;;1.20;0.90;;;18.90;84.50;;;;;;5058920;28;20289;-53
2024/03/18 07:32:48;;;;;;;1.10;0.85;;;18.90;84.50;;;;;;5061722;28;20663;-44
2024/03/18 07:35:18;;;;;;;1.00;0.80;;;18.90;84.70;;;;;;5056755;28;20205;-45
2024/03/18 07:37:53;;;;;;;1.00;0.80;;;18.90;84.70;;;;;;5062165;28;20205;-47
2024/03/18 07:40:23;;;;;;;0.90;0.80;;;18.90;84.70;;;;;;5063181;28;20213;-42
2024/03/18 07:42:55;;;;;;;1.10;0.85;;;18.90;84.90;;;;;;5044394;28;20289;-44
2024/03/18 07:45:22;;;;;;;1.40;0.88;;;19.00;85.10;;;;;;5043841;28;20198;-55
2024/03/18 07:48:04;;;;;;;1.10;0.80;;;19.20;84.90;;;;;;5056616;28;20201;-45
2024/03/18 07:50:39;;;;;;;1.00;0.80;;;19.30;84.30;;;;;;5063971;28;20697;-50
2024/03/18 07:53:07;;;;;;;1.00;0.80;;;19.20;84.30;;;;;;5058895;28;20228;-48
2024/03/18 07:55:34;;;;;;;1.00;0.80;;;19.30;84.30;;;;;;5060854;28;20775;-51
2024/03/18 07:58:01;;;;;;;1.00;0.80;;;19.40;84.20;;;;;;5054662;28;20201;-43
2024/03/18 08:00:38;;;;;;;1.13;0.85;;;19.50;84.10;;;;;;5051880;28;20218;-48
2024/03/18 08:03:08;;;;;;;1.00;0.80;;;19.50;83.90;;;;;;5052996;28;20245;-43
2024/03/18 08:05:49;;;;;;;1.55;1.00;;;19.60;83.50;;;;;;5035316;28;20938;-48
2024/03/18 08:08:16;;;;;;;1.10;0.90;;;19.60;83.20;;;;;;5044245;28;20647;-46
2024/03/18 08:10:47;;;;;;;1.00;0.90;;;19.70;83.20;;;;;;5054448;28;20262;-45
2024/03/18 08:13:22;;;;;;;1.10;0.90;;;19.70;83.10;;;;;;5047951;28;20226;-46
2024/03/18 08:15:54;;;;;;;0.93;0.70;;;19.80;83.10;;;;;;5049317;28;20201;-45
2024/03/18 08:18:41;;;;;;;1.00;0.90;;;19.80;82.90;;;;;;5046681;28;20658;-47
2024/03/18 08:21:07;;;;;;;1.38;0.88;;;19.80;82.70;;;;;;5054355;28;20218;-50
2024/03/18 08:23:36;;;;;;;1.15;1.00;;;19.80;82.80;;;;;;5056725;28;20201;-44
2024/03/18 08:26:24;;;;;;;0.93;0.70;;;19.80;82.80;;;;;;5061621;28;20194;-47
2024/03/18 08:31:40;;;;;;;1.05;0.95;;;19.80;82.60;;;;;;5056908;28;20865;-50
2024/03/18 08:34:11;;;;;;;0.93;0.70;;;19.80;82.60;;;;;;5061669;28;20768;-45
2024/03/18 08:36:47;;;;;;;1.00;0.90;;;19.80;82.60;;;;;;5058168;28;20194;-40
2024/03/18 08:39:17;;;;;;;1.00;0.80;;;19.80;82.30;;;;;;5052054;28;20197;-40
2024/03/18 08:41:53;;;;;;;1.02;0.90;;;19.90;82.30;;;;;;5052101;28;20647;-46
2024/03/18 08:44:23;;;;;;;1.00;0.90;;;19.90;82.10;;;;;;5053018;28;20200;-46
2024/03/18 08:46:52;;;;;;;1.10;0.80;;;19.90;82.10;;;;;;5057771;28;20654;-45
2024/03/18 08:49:22;;;;;;;1.40;1.10;;;19.90;81.80;;;;;;5058526;28;20197;-42
2024/03/18 08:51:49;;;;;;;1.00;0.85;;;19.90;81.70;;;;;;5059126;28;20628;-45
2024/03/18 08:54:18;;;;;;;1.05;0.80;;;19.90;81.50;;;;;;5052439;28;20220;-47
2024/03/18 08:56:47;;;;;;;1.27;0.70;;;20.00;81.40;;;;;;5046224;28;20348;-44
2024/03/18 08:59:20;;;;;;;1.10;0.90;;;20.00;81.40;;;;;;5055819;28;20762;-52
2024/03/18 09:01:51;;;;;;;1.00;0.80;;;20.00;81.20;;;;;;5060225;28;20221;-42
2024/03/18 09:04:40;;;;;;;1.10;0.90;;;20.00;81.10;;;;;;5051604;28;21123;-47
2024/03/18 09:07:08;;;;;;;1.08;0.95;;;20.00;81.00;;;;;;5050009;28;20550;-49
2024/03/18 09:09:42;;;;;;;1.10;0.80;;;20.00;80.80;;;;;;5064492;28;20202;-45
2024/03/18 09:12:11;;;;;;;0.90;0.70;;;20.00;80.90;;;;;;5055737;28;20288;-41
2024/03/18 09:14:52;;;;;;;1.00;0.80;;;20.10;80.90;;;;;;5061767;28;20506;-49
2024/03/18 09:17:35;;;;;;;1.08;0.80;;;20.10;80.70;;;;;;5064789;28;20198;-47
2024/03/18 09:20:32;;;;;;;0.90;0.70;;;20.20;80.50;;;;;;5059181;28;20221;-46
2024/03/18 09:23:03;;;;;;;1.00;0.80;;;20.20;80.30;;;;;;4973078;28;20332;-45
2024/03/18 09:25:33;;;;;;;0.90;0.70;;;20.30;80.10;;;;;;5018686;28;20209;-52
2024/03/18 09:30:47;;;;;;;2.85;1.15;;;20.40;80.00;;;;;;5039056;28;20198;-46
2024/03/18 09:33:17;;;;;;;0.90;0.70;;;20.50;80.40;;;;;;5058502;28;20230;-41
2024/03/18 09:35:48;;;;;;;1.00;0.80;;;20.60;80.40;;;;;;5049102;28;20226;-51
2024/03/18 09:38:19;;;;;;;1.20;0.90;;;20.70;80.70;;;;;;5054575;28;20421;-46
2024/03/18 09:40:47;;;;;;;0.90;0.80;;;20.80;80.60;;;;;;5049951;28;20218;-52
2024/03/18 09:43:23;;;;;;;1.00;0.80;;;20.80;80.60;;;;;;5054918;28;20460;-48
2024/03/18 09:45:54;;;;;;;1.10;1.00;;;20.90;80.50;;;;;;5049970;28;20197;-49
2024/03/18 09:48:22;;;;;;;1.00;0.77;;;20.90;80.60;;;;;;5054824;28;20197;-50
2024/03/18 09:51:08;;;;;;;1.03;0.80;;;20.90;80.60;;;;;;5054729;28;20201;-43
2024/03/18 09:53:42;;;;;;;1.48;0.95;;;20.90;80.70;;;;;;5049545;28;20460;-45
2024/03/18 09:56:15;;;;;;;1.20;1.00;;;21.00;80.70;;;;;;5050719;28;20252;-44
2024/03/18 09:58:48;;;;;;;1.03;0.80;;;20.90;80.70;;;;;;5052982;28;20460;-44
2024/03/18 10:01:21;;;;;;;0.98;0.80;;;21.00;80.80;;;;;;5043714;28;20490;-47
2024/03/18 10:04:05;;;;;;;1.40;0.90;;;21.00;81.00;;;;;;5056882;28;20846;-46
2024/03/18 10:06:40;;;;;;;1.08;0.90;;;21.00;80.70;;;;;;5061756;28;20470;-52
2024/03/18 10:09:19;;;;;;;1.13;0.80;;;21.00;80.70;;;;;;5061684;28;20284;-49
2024/03/18 10:11:56;;;;;;;1.20;1.00;;;21.10;80.80;;;;;;5064467;28;20895;-42
2024/03/18 10:14:27;;;;;;;1.07;0.87;;;21.10;80.70;;;;;;5053935;28;21718;-51
2024/03/18 10:17:00;;;;;;;1.08;0.80;;;21.10;80.50;;;;;;5056928;28;20820;-52
2024/03/18 10:19:30;;;;;;;1.00;0.90;;;21.10;80.60;;;;;;5059831;28;20208;-49
2024/03/18 10:22:06;;;;;;;1.10;0.90;;;21.20;80.60;;;;;;5059058;28;20322;-47
2024/03/18 10:24:39;;;;;;;1.33;0.93;;;21.20;80.60;;;;;;5064765;28;20816;-49
2024/03/18 10:27:14;;;;;;;1.00;0.80;;;21.20;80.70;;;;;;5065523;28;20461;-50
2024/03/18 10:29:46;;;;;;;1.48;0.80;;;21.30;80.70;;;;;;5063177;28;20478;-56
2024/03/18 10:32:26;;;;;;;1.20;0.80;;;21.30;80.50;;;;;;5062840;28;20198;-45
2024/03/18 10:35:05;;;;;;;1.10;0.80;;;21.30;80.30;;;;;;5065066;28;20932;-51
2024/03/18 10:37:38;;;;;;;2.97;0.93;;;21.30;80.30;;;;;;5067339;28;20455;-45
2024/03/18 10:40:13;;;;;;;1.10;0.90;;;21.30;80.20;;;;;;5063691;28;21042;-42
2024/03/18 10:42:47;;;;;;;1.40;1.10;;;21.40;80.20;;;;;;5063319;28;20468;-46
2024/03/18 10:45:17;;;;;;;1.10;0.90;;;21.40;80.10;;;;;;5063492;28;20469;-45
2024/03/18 10:47:45;;;;;;;1.00;0.80;;;21.40;80.00;;;;;;5064414;28;20465;-46
2024/03/18 10:50:25;;;;;;;1.13;0.70;;;21.50;80.00;;;;;;5067936;28;20451;-38
2024/03/18 10:53:16;;;;;;;1.10;0.90;;;21.50;79.80;;;;;;5063095;28;20472;-47
2024/03/18 10:55:49;;;;;;;0.93;0.73;;;21.50;79.70;;;;;;5057936;28;20892;-43
2024/03/18 10:58:19;;;;;;;1.00;0.80;;;21.60;79.70;;;;;;5058406;28;20576;-42
2024/03/18 11:00:48;;;;;;;0.90;0.70;;;21.60;79.50;;;;;;5063917;28;20463;-43
2024/03/18 11:03:27;;;;;;;1.17;0.80;;;21.70;79.50;;;;;;5062922;28;20606;-41
2024/03/18 11:06:16;;;;;;;1.27;0.90;;;21.60;79.30;;;;;;5063604;28;20541;-43
2024/03/18 11:08:59;;;;;;;0.90;0.70;;;21.70;79.40;;;;;;5062440;28;20837;-43
2024/03/18 11:11:34;;;;;;;1.10;0.73;;;21.70;79.30;;;;;;5053216;28;20451;-45
2024/03/18 11:14:04;;;;;;;1.10;0.70;;;21.70;79.30;;;;;;5060830;28;20461;-43
2024/03/18 11:16:33;;;;;;;1.10;0.80;;;21.70;79.30;;;;;;5058407;28;20828;-45
2024/03/18 11:19:06;;;;;;;1.20;0.80;;;21.70;79.20;;;;;;5062185;28;20475;-46
2024/03/18 11:21:35;;;;;;;0.97;0.70;;;21.80;79.20;;;;;;5055223;28;20837;-47
2024/03/18 11:24:04;;;;;;;1.10;0.80;;;21.80;79.10;;;;;;5038094;28;20464;-42
2024/03/18 11:26:35;;;;;;;0.90;0.73;;;21.80;79.00;;;;;;5039474;28;20976;-44
2024/03/18 11:29:11;;;;;;;1.10;0.80;;;21.80;79.00;;;;;;5048825;28;20487;-47
2024/03/18 11:31:52;;;;;;;1.07;0.80;;;21.80;78.90;;;;;;5060004;28;20459;-45
2024/03/18 11:34:25;;;;;;;17.20;15.40;;;21.80;78.80;;;;;;5049525;28;20569;-49
2024/03/18 11:36:59;;;;;;;17.58;14.93;;;20.00;77.20;;;;;;5056968;28;20545;-48
2024/03/18 11:39:41;;;;;;;16.90;13.15;;;19.30;80.50;;;;;;5059036;28;20198;-50
2024/03/18 11:42:11;;;;;;;14.98;12.65;;;19.40;81.00;;;;;;5055330;28;20221;-50
2024/03/18 11:44:49;;;;;;;15.20;12.18;;;19.10;79.00;;;;;;5063097;28;20202;-54
2024/03/18 11:47:24;;;;;;;10.25;8.00;;;19.10;80.10;;;;;;5058960;28;20194;-47
2024/03/18 11:50:04;;;;;;;8.15;6.60;;;19.30;82.90;;;;;;5061887;28;20197;-45
2024/03/18 11:52:47;;;;;;;6.70;5.95;;;20.50;80.70;;;;;;5052501;28;20194;-46
2024/03/18 11:55:20;;;;;;;5.40;4.88;;;21.00;78.70;;;;;;5058511;28;20204;-45
2024/03/18 11:58:01;;;;;;;5.82;5.10;;;21.30;77.90;;;;;;5059253;28;20340;-39
2024/03/18 12:00:36;;;;;;;6.53;5.18;;;21.40;77.40;;;;;;5062865;28;20223;-43
2024/03/18 12:03:21;;;;;;;4.93;4.53;;;21.50;77.00;;;;;;5056155;28;20226;-42
2024/03/18 12:05:50;;;;;;;3.80;3.42;;;21.60;76.80;;;;;;5054741;28;20197;-43
2024/03/18 12:08:28;;;;;;;4.03;3.50;;;21.70;76.60;;;;;;5052015;28;20233;-40
2024/03/18 12:11:06;;;;;;;4.33;3.93;;;21.70;76.40;;;;;;5057053;28;20794;-43
2024/03/18 12:13:39;;;;;;;5.40;3.37;;;21.80;76.20;;;;;;5056026;28;20472;-45
2024/03/18 12:16:33;;;;;;;4.63;3.60;;;21.90;76.10;;;;;;5060615;28;20469;-45
2024/03/18 12:19:09;;;;;;;4.00;3.07;;;21.90;75.80;;;;;;5060303;28;20867;-45
2024/03/18 12:21:47;;;;;;;3.70;3.40;;;21.90;75.60;;;;;;5063929;28;20959;-43
2024/03/18 12:29:44;;;;;;;3.07;2.87;;;22.00;75.20;;;;;;5062850;28;21229;-45
2024/03/18 12:32:12;;;;;;;4.90;3.37;;;22.00;75.20;;;;;;5058702;28;20464;-45
2024/03/18 12:34:44;;;;;;;3.30;3.00;;;22.00;75.00;;;;;;5062428;28;20460;-42
2024/03/18 12:37:17;;;;;;;3.70;3.40;;;22.00;74.90;;;;;;5057821;28;20464;-45
2024/03/18 12:39:47;;;;;;;3.63;3.17;;;22.00;74.80;;;;;;5061141;28;20466;-41
2024/03/18 12:42:18;;;;;;;3.60;2.60;;;22.10;74.80;;;;;;5059854;28;20484;-48
2024/03/18 12:44:45;;;;;;;3.07;2.77;;;22.10;74.70;;;;;;5048708;28;20481;-49
2024/03/18 12:47:24;;;;;;;3.27;2.73;;;22.00;74.50;;;;;;5058661;28;20451;-46
2024/03/18 12:49:50;;;;;;;3.20;3.00;;;22.10;74.50;;;;;;5060102;28;20454;-42
2024/03/18 12:52:21;;;;;;;6.40;3.17;;;22.10;74.30;;;;;;5059783;28;20482;-43
2024/03/18 12:54:54;;;;;;;3.07;2.80;;;22.10;74.20;;;;;;5059068;28;20464;-46
2024/03/18 12:57:30;;;;;;;2.60;2.40;;;22.10;74.10;;;;;;5049228;28;20471;-42
2024/03/18 12:59:56;;;;;;;2.73;2.53;;;22.20;74.30;;;;;;5057926;28;20471;-45
2024/03/18 13:02:32;;;;;;;3.30;2.60;;;22.20;74.20;;;;;;5056980;28;20479;-51
2024/03/18 13:05:07;;;;;;;2.73;2.53;;;22.20;74.20;;;;;;5066707;28;20455;-46
2024/03/18 13:07:36;;;;;;;3.57;3.10;;;22.20;74.20;;;;;;5059999;28;20492;-45
2024/03/18 13:10:16;;;;;;;3.47;2.80;;;22.30;74.40;;;;;;5061274;28;21327;-42
2024/03/18 13:15:54;;;;;;;2.60;2.40;;;22.40;74.40;;;;;;5034756;28;20581;-39
2024/03/18 13:18:21;;;;;;;3.33;3.03;;;22.40;74.30;;;;;;5059925;28;20543;-40
2024/03/18 13:20:57;;;;;;;2.37;2.17;;;22.50;74.40;;;;;;5059167;28;20459;-41
2024/03/18 13:23:32;;;;;;;2.63;2.43;;;22.40;74.20;;;;;;5058462;28;20487;-44
2024/03/18 13:26:00;;;;;;;3.30;2.67;;;22.50;74.20;;;;;;5049922;28;21146;-40
2024/03/18 13:28:49;;;;;;;3.07;2.77;;;22.50;74.30;;;;;;5052171;28;20457;-42
2024/03/18 13:31:22;;;;;;;2.33;2.13;;;22.50;74.10;;;;;;5058076;28;20509;-41
2024/03/18 13:33:56;;;;;;;2.60;2.20;;;22.60;74.20;;;;;;5056707;28;20460;-43
2024/03/18 13:36:25;;;;;;;3.30;2.53;;;22.60;74.00;;;;;;5060499;28;20471;-45
2024/03/18 13:38:54;;;;;;;6.60;2.80;;;22.60;74.00;;;;;;5050431;28;20948;-40
2024/03/18 13:41:25;;;;;;;2.17;1.97;;;22.70;74.10;;;;;;5059544;28;20952;-42
2024/03/18 13:43:55;;;;;;;2.80;2.60;;;22.70;74.00;;;;;;5064025;28;20480;-42
2024/03/18 13:46:22;;;;;;;2.60;2.33;;;22.70;74.10;;;;;;5065074;28;21020;-45
2024/03/18 13:51:39;;;;;;;2.60;2.37;;;22.70;73.90;;;;;;5061347;28;20451;-41